sensor_id;sensor_type;location;lat;lon;timestamp;P1;durP1;ratioP1;P2;durP2;ratioP2
7729;SDS011;3908;52.310;7.230;2022-08-01T00:02:47;8.37;;;5.50;;
7729;SDS011;3908;52.310;7.230;2022-08-01T00:05:33;8.97;;;5.90;;
7729;SDS011;3908;52.310;7.230;2022-08-01T00:08:20;8.17;;;5.93;;
7729;SDS011;3908;52.310;7.230;2022-08-01T00:11:09;8.27;;;6.07;;
7729;SDS011;3908;52.310;7.230;2022-08-01T00:13:56;11.43;;;5.80;;
7729;SDS011;3908;52.310;7.230;2022-08-01T00:16:43;10.80;;;6.10;;
7729;SDS011;3908;52.310;7.230;2022-08-01T00:19:30;10.07;;;5.65;;
7729;SDS011;3908;52.310;7.230;2022-08-01T00:22:17;8.55;;;5.88;;
7729;SDS011;3908;52.310;7.230;2022-08-01T00:25:04;10.23;;;5.37;;
7729;SDS011;3908;52.310;7.230;2022-08-01T00:27:53;10.55;;;5.88;;
7729;SDS011;3908;52.310;7.230;2022-08-01T00:30:40;11.97;;;6.23;;
7729;SDS011;3908;52.310;7.230;2022-08-01T00:33:27;9.97;;;7.13;;
7729;SDS011;3908;52.310;7.230;2022-08-01T00:36:14;9.47;;;5.50;;
7729;SDS011;3908;52.310;7.230;2022-08-01T00:39:02;9.50;;;5.97;;
7729;SDS011;3908;52.310;7.230;2022-08-01T00:41:49;9.90;;;6.43;;
7729;SDS011;3908;52.310;7.230;2022-08-01T00:44:37;14.60;;;5.95;;
7729;SDS011;3908;52.310;7.230;2022-08-01T00:47:24;10.55;;;6.00;;
7729;SDS011;3908;52.310;7.230;2022-08-01T00:50:12;15.32;;;7.53;;
7729;SDS011;3908;52.310;7.230;2022-08-01T00:52:59;14.73;;;6.13;;
7729;SDS011;3908;52.310;7.230;2022-08-01T00:55:47;10.23;;;5.50;;
7729;SDS011;3908;52.310;7.230;2022-08-01T00:58:34;9.80;;;6.40;;
7729;SDS011;3908;52.310;7.230;2022-08-01T01:01:23;8.57;;;5.67;;
7729;SDS011;3908;52.310;7.230;2022-08-01T01:04:10;9.40;;;4.93;;
7729;SDS011;3908;52.310;7.230;2022-08-01T01:06:57;9.37;;;5.60;;
7729;SDS011;3908;52.310;7.230;2022-08-01T01:09:52;7.70;;;5.35;;
7729;SDS011;3908;52.310;7.230;2022-08-01T01:12:47;9.17;;;5.60;;
7729;SDS011;3908;52.310;7.230;2022-08-01T01:15:39;11.57;;;6.13;;
7729;SDS011;3908;52.310;7.230;2022-08-01T01:18:30;9.30;;;5.70;;
7729;SDS011;3908;52.310;7.230;2022-08-01T01:21:37;9.57;;;5.40;;
7729;SDS011;3908;52.310;7.230;2022-08-01T01:24:36;8.37;;;4.93;;
7729;SDS011;3908;52.310;7.230;2022-08-01T01:27:39;8.53;;;4.87;;
7729;SDS011;3908;52.310;7.230;2022-08-01T01:30:39;11.70;;;5.80;;
7729;SDS011;3908;52.310;7.230;2022-08-01T01:33:29;8.13;;;5.33;;
7729;SDS011;3908;52.310;7.230;2022-08-01T01:36:18;8.20;;;4.63;;
7729;SDS011;3908;52.310;7.230;2022-08-01T01:39:07;9.00;;;5.00;;
7729;SDS011;3908;52.310;7.230;2022-08-01T01:41:54;6.03;;;4.43;;
7729;SDS011;3908;52.310;7.230;2022-08-01T01:44:43;9.47;;;4.53;;
7729;SDS011;3908;52.310;7.230;2022-08-01T01:47:32;7.80;;;5.13;;
7729;SDS011;3908;52.310;7.230;2022-08-01T01:50:20;9.10;;;5.50;;
7729;SDS011;3908;52.310;7.230;2022-08-01T01:53:09;7.20;;;4.37;;
7729;SDS011;3908;52.310;7.230;2022-08-01T01:55:58;6.77;;;4.27;;
7729;SDS011;3908;52.310;7.230;2022-08-01T01:58:48;5.87;;;3.87;;
7729;SDS011;3908;52.310;7.230;2022-08-01T02:01:37;3.87;;;3.33;;
7729;SDS011;3908;52.310;7.230;2022-08-01T02:04:26;5.43;;;3.73;;
7729;SDS011;3908;52.310;7.230;2022-08-01T02:07:16;4.97;;;3.17;;
7729;SDS011;3908;52.310;7.230;2022-08-01T02:10:05;5.00;;;3.40;;
7729;SDS011;3908;52.310;7.230;2022-08-01T02:12:55;4.57;;;3.13;;
7729;SDS011;3908;52.310;7.230;2022-08-01T02:15:45;4.82;;;3.40;;
7729;SDS011;3908;52.310;7.230;2022-08-01T02:18:33;5.17;;;3.60;;
7729;SDS011;3908;52.310;7.230;2022-08-01T02:21:23;4.43;;;3.58;;
7729;SDS011;3908;52.310;7.230;2022-08-01T02:24:14;6.33;;;4.67;;
7729;SDS011;3908;52.310;7.230;2022-08-01T02:27:10;5.45;;;3.40;;
7729;SDS011;3908;52.310;7.230;2022-08-01T02:30:01;7.17;;;4.90;;
7729;SDS011;3908;52.310;7.230;2022-08-01T02:32:51;4.57;;;3.80;;
7729;SDS011;3908;52.310;7.230;2022-08-01T02:35:52;6.97;;;4.18;;
7729;SDS011;3908;52.310;7.230;2022-08-01T02:38:44;4.40;;;3.50;;
7729;SDS011;3908;52.310;7.230;2022-08-01T02:41:33;7.37;;;4.10;;
7729;SDS011;3908;52.310;7.230;2022-08-01T02:44:27;7.13;;;4.30;;
7729;SDS011;3908;52.310;7.230;2022-08-01T02:47:17;5.70;;;3.60;;
7729;SDS011;3908;52.310;7.230;2022-08-01T02:50:07;5.37;;;3.63;;
7729;SDS011;3908;52.310;7.230;2022-08-01T02:52:56;3.40;;;2.70;;
7729;SDS011;3908;52.310;7.230;2022-08-01T02:55:46;5.78;;;4.22;;
7729;SDS011;3908;52.310;7.230;2022-08-01T02:58:34;5.70;;;3.57;;
7729;SDS011;3908;52.310;7.230;2022-08-01T03:01:22;5.17;;;3.93;;
7729;SDS011;3908;52.310;7.230;2022-08-01T03:04:10;6.33;;;4.83;;
7729;SDS011;3908;52.310;7.230;2022-08-01T03:06:58;9.00;;;4.70;;
7729;SDS011;3908;52.310;7.230;2022-08-01T03:09:48;6.83;;;4.70;;
7729;SDS011;3908;52.310;7.230;2022-08-01T03:12:37;5.77;;;4.40;;
7729;SDS011;3908;52.310;7.230;2022-08-01T03:15:26;6.27;;;5.20;;
7729;SDS011;3908;52.310;7.230;2022-08-01T03:18:17;9.47;;;5.30;;
7729;SDS011;3908;52.310;7.230;2022-08-01T03:21:05;7.13;;;5.20;;
7729;SDS011;3908;52.310;7.230;2022-08-01T03:23:56;7.37;;;5.70;;
7729;SDS011;3908;52.310;7.230;2022-08-01T03:26:46;6.67;;;5.10;;
7729;SDS011;3908;52.310;7.230;2022-08-01T03:29:36;8.40;;;6.27;;
7729;SDS011;3908;52.310;7.230;2022-08-01T03:32:25;9.03;;;5.83;;
7729;SDS011;3908;52.310;7.230;2022-08-01T03:35:13;8.53;;;5.73;;
7729;SDS011;3908;52.310;7.230;2022-08-01T03:38:01;10.40;;;6.10;;
7729;SDS011;3908;52.310;7.230;2022-08-01T03:40:51;10.87;;;6.80;;
7729;SDS011;3908;52.310;7.230;2022-08-01T03:43:41;11.50;;;6.70;;
7729;SDS011;3908;52.310;7.230;2022-08-01T03:46:35;11.30;;;7.32;;
7729;SDS011;3908;52.310;7.230;2022-08-01T03:49:33;9.33;;;7.47;;
7729;SDS011;3908;52.310;7.230;2022-08-01T03:52:24;11.33;;;7.30;;
7729;SDS011;3908;52.310;7.230;2022-08-01T03:55:14;8.70;;;6.70;;
7729;SDS011;3908;52.310;7.230;2022-08-01T03:58:03;10.63;;;6.50;;
7729;SDS011;3908;52.310;7.230;2022-08-01T04:00:51;10.47;;;7.40;;
7729;SDS011;3908;52.310;7.230;2022-08-01T04:03:40;13.70;;;8.07;;
7729;SDS011;3908;52.310;7.230;2022-08-01T04:06:28;10.50;;;6.27;;
7729;SDS011;3908;52.310;7.230;2022-08-01T04:09:15;11.23;;;8.40;;
7729;SDS011;3908;52.310;7.230;2022-08-01T04:12:03;8.40;;;6.63;;
7729;SDS011;3908;52.310;7.230;2022-08-01T04:14:50;9.83;;;6.43;;
7729;SDS011;3908;52.310;7.230;2022-08-01T04:17:37;10.90;;;7.43;;
7729;SDS011;3908;52.310;7.230;2022-08-01T04:20:26;9.97;;;7.10;;
7729;SDS011;3908;52.310;7.230;2022-08-01T04:23:13;9.70;;;7.57;;
7729;SDS011;3908;52.310;7.230;2022-08-01T04:26:03;11.00;;;8.07;;
7729;SDS011;3908;52.310;7.230;2022-08-01T04:28:52;10.37;;;7.50;;
7729;SDS011;3908;52.310;7.230;2022-08-01T04:31:42;11.50;;;8.40;;
7729;SDS011;3908;52.310;7.230;2022-08-01T04:34:31;8.93;;;7.07;;
7729;SDS011;3908;52.310;7.230;2022-08-01T04:37:21;12.33;;;7.83;;
7729;SDS011;3908;52.310;7.230;2022-08-01T04:40:11;9.47;;;7.17;;
7729;SDS011;3908;52.310;7.230;2022-08-01T04:42:59;10.67;;;8.20;;
7729;SDS011;3908;52.310;7.230;2022-08-01T04:45:47;14.17;;;8.10;;
7729;SDS011;3908;52.310;7.230;2022-08-01T04:48:36;10.97;;;7.60;;
7729;SDS011;3908;52.310;7.230;2022-08-01T04:51:24;10.93;;;8.00;;
7729;SDS011;3908;52.310;7.230;2022-08-01T04:54:12;10.83;;;8.07;;
7729;SDS011;3908;52.310;7.230;2022-08-01T04:56:59;10.97;;;7.57;;
7729;SDS011;3908;52.310;7.230;2022-08-01T04:59:47;11.30;;;7.70;;
7729;SDS011;3908;52.310;7.230;2022-08-01T05:02:34;11.63;;;7.97;;
7729;SDS011;3908;52.310;7.230;2022-08-01T05:05:22;12.10;;;8.20;;
7729;SDS011;3908;52.310;7.230;2022-08-01T05:08:11;9.67;;;7.90;;
7729;SDS011;3908;52.310;7.230;2022-08-01T05:10:59;9.67;;;6.50;;
7729;SDS011;3908;52.310;7.230;2022-08-01T05:13:47;5.53;;;4.60;;
7729;SDS011;3908;52.310;7.230;2022-08-01T05:16:34;4.80;;;3.57;;
7729;SDS011;3908;52.310;7.230;2022-08-01T05:19:21;5.37;;;3.37;;
7729;SDS011;3908;52.310;7.230;2022-08-01T05:22:09;4.37;;;3.30;;
7729;SDS011;3908;52.310;7.230;2022-08-01T05:24:56;4.20;;;3.50;;
7729;SDS011;3908;52.310;7.230;2022-08-01T05:27:46;4.83;;;3.63;;
7729;SDS011;3908;52.310;7.230;2022-08-01T05:30:33;9.13;;;3.83;;
7729;SDS011;3908;52.310;7.230;2022-08-01T05:33:20;8.27;;;4.27;;
7729;SDS011;3908;52.310;7.230;2022-08-01T05:36:07;5.37;;;3.70;;
7729;SDS011;3908;52.310;7.230;2022-08-01T05:38:54;7.27;;;4.07;;
7729;SDS011;3908;52.310;7.230;2022-08-01T05:41:41;4.77;;;3.70;;
7729;SDS011;3908;52.310;7.230;2022-08-01T05:44:29;6.17;;;3.57;;
7729;SDS011;3908;52.310;7.230;2022-08-01T05:47:16;6.67;;;4.33;;
7729;SDS011;3908;52.310;7.230;2022-08-01T05:50:04;8.27;;;4.73;;
7729;SDS011;3908;52.310;7.230;2022-08-01T05:52:51;6.87;;;4.40;;
7729;SDS011;3908;52.310;7.230;2022-08-01T05:55:38;8.67;;;4.57;;
7729;SDS011;3908;52.310;7.230;2022-08-01T05:58:25;5.83;;;4.33;;
7729;SDS011;3908;52.310;7.230;2022-08-01T06:01:14;5.90;;;4.80;;
7729;SDS011;3908;52.310;7.230;2022-08-01T06:04:00;6.40;;;4.73;;
7729;SDS011;3908;52.310;7.230;2022-08-01T06:06:47;9.60;;;4.57;;
7729;SDS011;3908;52.310;7.230;2022-08-01T06:09:35;8.33;;;4.40;;
7729;SDS011;3908;52.310;7.230;2022-08-01T06:12:21;4.90;;;4.03;;
7729;SDS011;3908;52.310;7.230;2022-08-01T06:15:09;8.27;;;4.47;;
7729;SDS011;3908;52.310;7.230;2022-08-01T06:17:58;6.47;;;4.80;;
7729;SDS011;3908;52.310;7.230;2022-08-01T06:20:45;10.07;;;4.60;;
7729;SDS011;3908;52.310;7.230;2022-08-01T06:23:32;6.00;;;4.23;;
7729;SDS011;3908;52.310;7.230;2022-08-01T06:26:19;4.57;;;4.07;;
7729;SDS011;3908;52.310;7.230;2022-08-01T06:29:06;8.57;;;4.40;;
7729;SDS011;3908;52.310;7.230;2022-08-01T06:31:53;4.87;;;4.37;;
7729;SDS011;3908;52.310;7.230;2022-08-01T06:34:42;4.93;;;4.20;;
7729;SDS011;3908;52.310;7.230;2022-08-01T06:37:29;8.60;;;4.60;;
7729;SDS011;3908;52.310;7.230;2022-08-01T06:40:16;11.60;;;5.30;;
7729;SDS011;3908;52.310;7.230;2022-08-01T06:43:04;5.60;;;3.77;;
7729;SDS011;3908;52.310;7.230;2022-08-01T06:45:51;5.83;;;3.00;;
7729;SDS011;3908;52.310;7.230;2022-08-01T06:48:38;7.23;;;3.17;;
7729;SDS011;3908;52.310;7.230;2022-08-01T06:51:26;4.70;;;3.43;;
7729;SDS011;3908;52.310;7.230;2022-08-01T06:54:13;5.67;;;3.30;;
7729;SDS011;3908;52.310;7.230;2022-08-01T06:57:04;6.67;;;3.50;;
7729;SDS011;3908;52.310;7.230;2022-08-01T06:59:51;6.57;;;3.50;;
7729;SDS011;3908;52.310;7.230;2022-08-01T07:02:38;4.40;;;3.07;;
7729;SDS011;3908;52.310;7.230;2022-08-01T07:05:26;7.50;;;3.60;;
7729;SDS011;3908;52.310;7.230;2022-08-01T07:08:17;5.90;;;3.10;;
7729;SDS011;3908;52.310;7.230;2022-08-01T07:11:04;7.40;;;3.03;;
7729;SDS011;3908;52.310;7.230;2022-08-01T07:13:51;5.20;;;3.00;;
7729;SDS011;3908;52.310;7.230;2022-08-01T07:16:38;4.83;;;3.27;;
7729;SDS011;3908;52.310;7.230;2022-08-01T07:19:25;4.53;;;2.90;;
7729;SDS011;3908;52.310;7.230;2022-08-01T07:22:12;4.20;;;2.50;;
7729;SDS011;3908;52.310;7.230;2022-08-01T07:25:03;6.80;;;2.60;;
7729;SDS011;3908;52.310;7.230;2022-08-01T07:27:51;6.40;;;2.80;;
7729;SDS011;3908;52.310;7.230;2022-08-01T07:30:38;5.67;;;2.63;;
7729;SDS011;3908;52.310;7.230;2022-08-01T07:33:27;4.63;;;2.40;;
7729;SDS011;3908;52.310;7.230;2022-08-01T07:36:14;3.07;;;2.73;;
7729;SDS011;3908;52.310;7.230;2022-08-01T07:39:01;6.30;;;3.50;;
7729;SDS011;3908;52.310;7.230;2022-08-01T07:41:50;4.70;;;3.03;;
7729;SDS011;3908;52.310;7.230;2022-08-01T07:44:37;10.00;;;3.50;;
7729;SDS011;3908;52.310;7.230;2022-08-01T07:47:24;5.53;;;4.10;;
7729;SDS011;3908;52.310;7.230;2022-08-01T07:50:11;7.67;;;4.50;;
7729;SDS011;3908;52.310;7.230;2022-08-01T07:52:59;8.30;;;3.30;;
7729;SDS011;3908;52.310;7.230;2022-08-01T07:55:46;4.27;;;2.77;;
7729;SDS011;3908;52.310;7.230;2022-08-01T07:58:34;6.67;;;2.67;;
7729;SDS011;3908;52.310;7.230;2022-08-01T08:01:21;5.90;;;3.33;;
7729;SDS011;3908;52.310;7.230;2022-08-01T08:04:08;5.87;;;2.73;;
7729;SDS011;3908;52.310;7.230;2022-08-01T08:06:55;6.53;;;3.13;;
7729;SDS011;3908;52.310;7.230;2022-08-01T08:09:42;6.97;;;3.10;;
7729;SDS011;3908;52.310;7.230;2022-08-01T08:12:29;9.70;;;3.00;;
7729;SDS011;3908;52.310;7.230;2022-08-01T08:15:18;8.50;;;3.10;;
7729;SDS011;3908;52.310;7.230;2022-08-01T08:18:05;4.93;;;2.97;;
7729;SDS011;3908;52.310;7.230;2022-08-01T08:20:53;6.83;;;3.20;;
7729;SDS011;3908;52.310;7.230;2022-08-01T08:23:40;8.33;;;3.33;;
7729;SDS011;3908;52.310;7.230;2022-08-01T08:26:44;5.43;;;2.90;;
7729;SDS011;3908;52.310;7.230;2022-08-01T08:29:32;8.90;;;3.37;;
7729;SDS011;3908;52.310;7.230;2022-08-01T08:32:20;6.10;;;3.30;;
7729;SDS011;3908;52.310;7.230;2022-08-01T08:35:07;10.07;;;3.30;;
7729;SDS011;3908;52.310;7.230;2022-08-01T08:37:55;11.80;;;3.60;;
7729;SDS011;3908;52.310;7.230;2022-08-01T08:40:42;8.97;;;3.10;;
7729;SDS011;3908;52.310;7.230;2022-08-01T08:43:29;8.23;;;2.90;;
7729;SDS011;3908;52.310;7.230;2022-08-01T08:46:16;5.63;;;3.00;;
7729;SDS011;3908;52.310;7.230;2022-08-01T08:49:05;5.57;;;2.80;;
7729;SDS011;3908;52.310;7.230;2022-08-01T08:51:53;6.63;;;2.93;;
7729;SDS011;3908;52.310;7.230;2022-08-01T08:54:45;5.33;;;2.80;;
7729;SDS011;3908;52.310;7.230;2022-08-01T08:57:33;5.10;;;2.75;;
7729;SDS011;3908;52.310;7.230;2022-08-01T09:00:21;3.90;;;2.57;;
7729;SDS011;3908;52.310;7.230;2022-08-01T09:03:08;7.00;;;3.28;;
7729;SDS011;3908;52.310;7.230;2022-08-01T09:05:57;6.07;;;2.95;;
7729;SDS011;3908;52.310;7.230;2022-08-01T09:08:44;11.65;;;3.28;;
7729;SDS011;3908;52.310;7.230;2022-08-01T09:11:31;6.43;;;3.03;;
7729;SDS011;3908;52.310;7.230;2022-08-01T09:14:18;7.10;;;2.70;;
7729;SDS011;3908;52.310;7.230;2022-08-01T09:17:09;6.27;;;3.00;;
7729;SDS011;3908;52.310;7.230;2022-08-01T09:19:57;4.60;;;2.60;;
7729;SDS011;3908;52.310;7.230;2022-08-01T09:22:46;5.63;;;2.60;;
7729;SDS011;3908;52.310;7.230;2022-08-01T09:28:39;8.02;;;2.72;;
7729;SDS011;3908;52.310;7.230;2022-08-01T09:31:27;8.15;;;2.83;;
7729;SDS011;3908;52.310;7.230;2022-08-01T09:34:15;5.05;;;1.92;;
7729;SDS011;3908;52.310;7.230;2022-08-01T09:37:03;7.30;;;2.08;;
7729;SDS011;3908;52.310;7.230;2022-08-01T09:39:55;3.65;;;1.73;;
7729;SDS011;3908;52.310;7.230;2022-08-01T09:42:43;3.63;;;1.95;;
7729;SDS011;3908;52.310;7.230;2022-08-01T09:45:34;6.72;;;1.85;;
7729;SDS011;3908;52.310;7.230;2022-08-01T09:48:21;3.08;;;1.85;;
7729;SDS011;3908;52.310;7.230;2022-08-01T09:51:08;6.13;;;2.08;;
7729;SDS011;3908;52.310;7.230;2022-08-01T09:53:56;5.22;;;1.90;;
7729;SDS011;3908;52.310;7.230;2022-08-01T09:56:45;6.43;;;2.60;;
7729;SDS011;3908;52.310;7.230;2022-08-01T09:59:34;7.40;;;2.47;;
7729;SDS011;3908;52.310;7.230;2022-08-01T10:02:26;8.02;;;2.53;;
7729;SDS011;3908;52.310;7.230;2022-08-01T10:05:15;6.32;;;2.03;;
7729;SDS011;3908;52.310;7.230;2022-08-01T10:08:03;9.25;;;2.40;;
7729;SDS011;3908;52.310;7.230;2022-08-01T10:11:05;6.05;;;2.03;;
7729;SDS011;3908;52.310;7.230;2022-08-01T10:13:55;5.20;;;2.30;;
7729;SDS011;3908;52.310;7.230;2022-08-01T10:16:45;7.07;;;2.25;;
7729;SDS011;3908;52.310;7.230;2022-08-01T10:19:34;5.70;;;2.60;;
7729;SDS011;3908;52.310;7.230;2022-08-01T10:22:23;9.60;;;2.25;;
7729;SDS011;3908;52.310;7.230;2022-08-01T10:25:12;4.95;;;2.08;;
7729;SDS011;3908;52.310;7.230;2022-08-01T10:28:05;8.65;;;2.40;;
7729;SDS011;3908;52.310;7.230;2022-08-01T10:31:01;4.65;;;2.00;;
7729;SDS011;3908;52.310;7.230;2022-08-01T10:33:48;5.70;;;2.00;;
7729;SDS011;3908;52.310;7.230;2022-08-01T10:36:37;7.43;;;2.05;;
7729;SDS011;3908;52.310;7.230;2022-08-01T10:39:24;9.90;;;2.40;;
7729;SDS011;3908;52.310;7.230;2022-08-01T10:42:13;4.63;;;2.03;;
7729;SDS011;3908;52.310;7.230;2022-08-01T10:45:00;6.13;;;1.63;;
7729;SDS011;3908;52.310;7.230;2022-08-01T10:47:51;7.57;;;2.47;;
7729;SDS011;3908;52.310;7.230;2022-08-01T10:50:44;3.97;;;1.83;;
7729;SDS011;3908;52.310;7.230;2022-08-01T10:53:33;4.93;;;2.15;;
7729;SDS011;3908;52.310;7.230;2022-08-01T10:56:21;8.40;;;2.03;;
7729;SDS011;3908;52.310;7.230;2022-08-01T10:59:08;7.18;;;2.28;;
7729;SDS011;3908;52.310;7.230;2022-08-01T11:01:56;4.60;;;1.90;;
7729;SDS011;3908;52.310;7.230;2022-08-01T11:04:48;7.57;;;1.80;;
7729;SDS011;3908;52.310;7.230;2022-08-01T11:07:46;6.57;;;1.67;;
7729;SDS011;3908;52.310;7.230;2022-08-01T11:10:36;6.30;;;2.15;;
7729;SDS011;3908;52.310;7.230;2022-08-01T11:16:46;7.53;;;1.80;;
7729;SDS011;3908;52.310;7.230;2022-08-01T11:26:14;9.00;;;2.03;;
7729;SDS011;3908;52.310;7.230;2022-08-01T11:29:15;5.75;;;2.28;;
7729;SDS011;3908;52.310;7.230;2022-08-01T11:35:11;5.97;;;2.13;;
7729;SDS011;3908;52.310;7.230;2022-08-01T11:41:09;13.55;;;2.25;;
7729;SDS011;3908;52.310;7.230;2022-08-01T11:43:57;5.70;;;1.80;;
7729;SDS011;3908;52.310;7.230;2022-08-01T11:49:49;7.13;;;2.20;;
7729;SDS011;3908;52.310;7.230;2022-08-01T11:52:41;8.15;;;3.17;;
7729;SDS011;3908;52.310;7.230;2022-08-01T11:55:30;6.75;;;1.98;;
7729;SDS011;3908;52.310;7.230;2022-08-01T11:58:20;6.97;;;2.30;;
7729;SDS011;3908;52.310;7.230;2022-08-01T12:01:11;5.43;;;2.15;;
7729;SDS011;3908;52.310;7.230;2022-08-01T12:04:00;6.45;;;2.38;;
7729;SDS011;3908;52.310;7.230;2022-08-01T12:06:47;5.82;;;1.73;;
7729;SDS011;3908;52.310;7.230;2022-08-01T12:09:35;8.55;;;2.17;;
7729;SDS011;3908;52.310;7.230;2022-08-01T12:12:22;10.35;;;1.67;;
7729;SDS011;3908;52.310;7.230;2022-08-01T12:15:09;6.95;;;2.03;;
7729;SDS011;3908;52.310;7.230;2022-08-01T12:17:58;10.65;;;2.85;;
7729;SDS011;3908;52.310;7.230;2022-08-01T12:20:46;6.43;;;1.92;;
7729;SDS011;3908;52.310;7.230;2022-08-01T12:23:33;8.32;;;2.30;;
7729;SDS011;3908;52.310;7.230;2022-08-01T12:26:22;6.90;;;2.33;;
7729;SDS011;3908;52.310;7.230;2022-08-01T12:29:09;8.48;;;2.28;;
7729;SDS011;3908;52.310;7.230;2022-08-01T12:31:56;6.97;;;2.30;;
7729;SDS011;3908;52.310;7.230;2022-08-01T12:34:43;8.40;;;2.05;;
7729;SDS011;3908;52.310;7.230;2022-08-01T12:37:30;11.70;;;2.17;;
7729;SDS011;3908;52.310;7.230;2022-08-01T12:40:18;7.65;;;2.00;;
7729;SDS011;3908;52.310;7.230;2022-08-01T12:43:09;4.35;;;1.83;;
7729;SDS011;3908;52.310;7.230;2022-08-01T12:45:57;4.93;;;1.80;;
7729;SDS011;3908;52.310;7.230;2022-08-01T12:48:46;5.60;;;1.90;;
7729;SDS011;3908;52.310;7.230;2022-08-01T12:51:33;7.10;;;2.20;;
7729;SDS011;3908;52.310;7.230;2022-08-01T12:54:21;7.13;;;2.42;;
7729;SDS011;3908;52.310;7.230;2022-08-01T12:57:21;4.53;;;1.95;;
7729;SDS011;3908;52.310;7.230;2022-08-01T13:00:11;4.05;;;1.60;;
7729;SDS011;3908;52.310;7.230;2022-08-01T13:03:02;6.57;;;1.60;;
7729;SDS011;3908;52.310;7.230;2022-08-01T13:05:51;4.68;;;1.80;;
7729;SDS011;3908;52.310;7.230;2022-08-01T13:08:39;7.35;;;2.53;;
7729;SDS011;3908;52.310;7.230;2022-08-01T13:11:26;8.02;;;1.90;;
7729;SDS011;3908;52.310;7.230;2022-08-01T13:14:25;5.45;;;1.70;;
7729;SDS011;3908;52.310;7.230;2022-08-01T13:20:29;4.55;;;1.58;;
7729;SDS011;3908;52.310;7.230;2022-08-01T13:23:19;5.57;;;1.60;;
7729;SDS011;3908;52.310;7.230;2022-08-01T13:26:06;5.35;;;1.60;;
7729;SDS011;3908;52.310;7.230;2022-08-01T13:29:03;6.88;;;2.03;;
7729;SDS011;3908;52.310;7.230;2022-08-01T13:31:52;7.97;;;2.03;;
7729;SDS011;3908;52.310;7.230;2022-08-01T13:34:40;5.13;;;1.95;;
7729;SDS011;3908;52.310;7.230;2022-08-01T13:37:27;6.25;;;2.47;;
7729;SDS011;3908;52.310;7.230;2022-08-01T13:40:22;7.85;;;1.67;;
7729;SDS011;3908;52.310;7.230;2022-08-01T13:43:10;5.95;;;1.88;;
7729;SDS011;3908;52.310;7.230;2022-08-01T13:45:57;4.82;;;1.80;;
7729;SDS011;3908;52.310;7.230;2022-08-01T13:48:44;5.22;;;1.83;;
7729;SDS011;3908;52.310;7.230;2022-08-01T13:51:33;8.88;;;2.05;;
7729;SDS011;3908;52.310;7.230;2022-08-01T13:54:20;6.30;;;1.75;;
7729;SDS011;3908;52.310;7.230;2022-08-01T13:57:08;7.38;;;2.10;;
7729;SDS011;3908;52.310;7.230;2022-08-01T13:59:56;7.35;;;1.90;;
7729;SDS011;3908;52.310;7.230;2022-08-01T14:02:45;9.38;;;2.20;;
7729;SDS011;3908;52.310;7.230;2022-08-01T14:05:32;4.43;;;1.67;;
7729;SDS011;3908;52.310;7.230;2022-08-01T14:08:20;9.52;;;2.03;;
7729;SDS011;3908;52.310;7.230;2022-08-01T14:11:07;5.47;;;1.80;;
7729;SDS011;3908;52.310;7.230;2022-08-01T14:13:55;6.43;;;2.08;;
7729;SDS011;3908;52.310;7.230;2022-08-01T14:16:42;3.92;;;1.65;;
7729;SDS011;3908;52.310;7.230;2022-08-01T14:19:30;5.85;;;1.67;;
7729;SDS011;3908;52.310;7.230;2022-08-01T14:22:17;4.05;;;2.10;;
7729;SDS011;3908;52.310;7.230;2022-08-01T14:25:06;4.80;;;1.95;;
7729;SDS011;3908;52.310;7.230;2022-08-01T14:27:54;5.82;;;1.75;;
7729;SDS011;3908;52.310;7.230;2022-08-01T14:30:41;4.38;;;1.67;;
7729;SDS011;3908;52.310;7.230;2022-08-01T14:33:28;5.10;;;1.98;;
7729;SDS011;3908;52.310;7.230;2022-08-01T14:36:16;6.22;;;1.85;;
7729;SDS011;3908;52.310;7.230;2022-08-01T14:39:03;3.28;;;1.63;;
7729;SDS011;3908;52.310;7.230;2022-08-01T14:41:51;3.40;;;1.95;;
7729;SDS011;3908;52.310;7.230;2022-08-01T14:44:38;4.05;;;1.77;;
7729;SDS011;3908;52.310;7.230;2022-08-01T14:47:25;6.65;;;2.67;;
7729;SDS011;3908;52.310;7.230;2022-08-01T14:50:13;4.00;;;1.50;;
7729;SDS011;3908;52.310;7.230;2022-08-01T14:53:01;6.13;;;2.05;;
7729;SDS011;3908;52.310;7.230;2022-08-01T14:55:49;5.70;;;2.00;;
7729;SDS011;3908;52.310;7.230;2022-08-01T14:58:37;8.48;;;1.98;;
7729;SDS011;3908;52.310;7.230;2022-08-01T15:01:24;5.80;;;1.95;;
7729;SDS011;3908;52.310;7.230;2022-08-01T15:04:11;8.73;;;1.70;;
7729;SDS011;3908;52.310;7.230;2022-08-01T15:06:58;5.95;;;1.60;;
7729;SDS011;3908;52.310;7.230;2022-08-01T15:09:45;5.63;;;2.08;;
7729;SDS011;3908;52.310;7.230;2022-08-01T15:12:33;6.03;;;2.10;;
7729;SDS011;3908;52.310;7.230;2022-08-01T15:15:21;8.43;;;2.10;;
7729;SDS011;3908;52.310;7.230;2022-08-01T15:18:10;6.22;;;1.73;;
7729;SDS011;3908;52.310;7.230;2022-08-01T15:20:57;6.45;;;1.95;;
7729;SDS011;3908;52.310;7.230;2022-08-01T15:23:44;6.25;;;1.67;;
7729;SDS011;3908;52.310;7.230;2022-08-01T15:26:31;4.80;;;1.63;;
7729;SDS011;3908;52.310;7.230;2022-08-01T15:29:18;5.00;;;1.98;;
7729;SDS011;3908;52.310;7.230;2022-08-01T15:32:06;10.02;;;2.15;;
7729;SDS011;3908;52.310;7.230;2022-08-01T15:34:54;4.65;;;1.77;;
7729;SDS011;3908;52.310;7.230;2022-08-01T15:37:41;4.93;;;2.00;;
7729;SDS011;3908;52.310;7.230;2022-08-01T15:40:28;6.28;;;1.85;;
7729;SDS011;3908;52.310;7.230;2022-08-01T15:43:19;3.17;;;1.60;;
7729;SDS011;3908;52.310;7.230;2022-08-01T15:46:06;7.00;;;1.98;;
7729;SDS011;3908;52.310;7.230;2022-08-01T15:48:54;6.45;;;2.15;;
7729;SDS011;3908;52.310;7.230;2022-08-01T15:51:41;5.00;;;2.10;;
7729;SDS011;3908;52.310;7.230;2022-08-01T15:54:29;8.43;;;2.10;;
7729;SDS011;3908;52.310;7.230;2022-08-01T15:57:16;7.50;;;1.75;;
7729;SDS011;3908;52.310;7.230;2022-08-01T16:00:03;5.68;;;1.92;;
7729;SDS011;3908;52.310;7.230;2022-08-01T16:02:51;7.10;;;1.83;;
7729;SDS011;3908;52.310;7.230;2022-08-01T16:05:41;5.18;;;1.50;;
7729;SDS011;3908;52.310;7.230;2022-08-01T16:08:28;5.55;;;1.85;;
7729;SDS011;3908;52.310;7.230;2022-08-01T16:11:15;2.67;;;1.33;;
7729;SDS011;3908;52.310;7.230;2022-08-01T16:14:02;4.88;;;1.58;;
7729;SDS011;3908;52.310;7.230;2022-08-01T16:16:49;4.55;;;1.95;;
7729;SDS011;3908;52.310;7.230;2022-08-01T16:19:37;6.88;;;1.80;;
7729;SDS011;3908;52.310;7.230;2022-08-01T16:22:26;5.47;;;1.50;;
7729;SDS011;3908;52.310;7.230;2022-08-01T16:25:13;4.85;;;1.58;;
7729;SDS011;3908;52.310;7.230;2022-08-01T16:28:02;6.30;;;1.40;;
7729;SDS011;3908;52.310;7.230;2022-08-01T16:30:49;4.00;;;1.30;;
7729;SDS011;3908;52.310;7.230;2022-08-01T16:33:36;5.55;;;1.52;;
7729;SDS011;3908;52.310;7.230;2022-08-01T16:36:23;3.15;;;1.40;;
7729;SDS011;3908;52.310;7.230;2022-08-01T16:39:11;7.00;;;2.00;;
7729;SDS011;3908;52.310;7.230;2022-08-01T16:41:58;4.05;;;1.40;;
7729;SDS011;3908;52.310;7.230;2022-08-01T16:44:45;3.35;;;1.23;;
7729;SDS011;3908;52.310;7.230;2022-08-01T16:47:32;4.07;;;1.25;;
7729;SDS011;3908;52.310;7.230;2022-08-01T16:50:19;7.25;;;1.98;;
7729;SDS011;3908;52.310;7.230;2022-08-01T16:53:06;3.85;;;1.25;;
7729;SDS011;3908;52.310;7.230;2022-08-01T16:55:55;3.97;;;1.15;;
7729;SDS011;3908;52.310;7.230;2022-08-01T16:58:42;4.00;;;1.17;;
7729;SDS011;3908;52.310;7.230;2022-08-01T17:01:29;3.28;;;1.25;;
7729;SDS011;3908;52.310;7.230;2022-08-01T17:04:17;1.75;;;1.33;;
7729;SDS011;3908;52.310;7.230;2022-08-01T17:07:05;3.03;;;1.27;;
7729;SDS011;3908;52.310;7.230;2022-08-01T17:09:52;4.32;;;1.65;;
7729;SDS011;3908;52.310;7.230;2022-08-01T17:12:40;4.38;;;1.40;;
7729;SDS011;3908;52.310;7.230;2022-08-01T17:15:28;4.55;;;1.30;;
7729;SDS011;3908;52.310;7.230;2022-08-01T17:18:16;5.18;;;1.50;;
7729;SDS011;3908;52.310;7.230;2022-08-01T17:21:03;2.75;;;1.42;;
7729;SDS011;3908;52.310;7.230;2022-08-01T17:23:50;3.80;;;1.48;;
7729;SDS011;3908;52.310;7.230;2022-08-01T17:26:37;5.38;;;1.50;;
7729;SDS011;3908;52.310;7.230;2022-08-01T17:29:26;6.28;;;1.52;;
7729;SDS011;3908;52.310;7.230;2022-08-01T17:32:13;4.45;;;1.40;;
7729;SDS011;3908;52.310;7.230;2022-08-01T17:35:00;3.90;;;1.70;;
7729;SDS011;3908;52.310;7.230;2022-08-01T17:37:47;3.72;;;1.33;;
7729;SDS011;3908;52.310;7.230;2022-08-01T17:40:35;6.35;;;1.40;;
7729;SDS011;3908;52.310;7.230;2022-08-01T17:43:22;6.47;;;1.60;;
7729;SDS011;3908;52.310;7.230;2022-08-01T17:46:10;6.22;;;1.55;;
7729;SDS011;3908;52.310;7.230;2022-08-01T17:48:57;2.17;;;1.33;;
7729;SDS011;3908;52.310;7.230;2022-08-01T17:51:46;3.75;;;1.48;;